sensor_id;sensor_type;location;lat;lon;timestamp;temperature;humidity
68026;SHT31;54819;48.030;14.710;2023-07-24T00:02:23;21.34;65.37
68026;SHT31;54819;48.030;14.710;2023-07-24T00:04:50;21.31;65.28
68026;SHT31;54819;48.030;14.710;2023-07-24T00:07:17;21.27;65.37
68026;SHT31;54819;48.030;14.710;2023-07-24T00:09:43;21.24;65.56
68026;SHT31;54819;48.030;14.710;2023-07-24T00:12:10;21.20;65.92
68026;SHT31;54819;48.030;14.710;2023-07-24T00:14:37;21.19;65.85
68026;SHT31;54819;48.030;14.710;2023-07-24T00:17:03;21.17;65.71
68026;SHT31;54819;48.030;14.710;2023-07-24T00:19:31;21.15;65.80
68026;SHT31;54819;48.030;14.710;2023-07-24T00:21:57;21.15;66.08
68026;SHT31;54819;48.030;14.710;2023-07-24T00:24:24;21.13;66.22
68026;SHT31;54819;48.030;14.710;2023-07-24T00:26:51;21.13;66.06
68026;SHT31;54819;48.030;14.710;2023-07-24T00:29:17;21.12;65.98
68026;SHT31;54819;48.030;14.710;2023-07-24T00:31:44;21.11;65.99
68026;SHT31;54819;48.030;14.710;2023-07-24T00:34:11;21.10;66.22
68026;SHT31;54819;48.030;14.710;2023-07-24T00:36:39;21.11;65.91
68026;SHT31;54819;48.030;14.710;2023-07-24T00:39:06;21.10;65.64
68026;SHT31;54819;48.030;14.710;2023-07-24T00:41:33;21.08;66.18
68026;SHT31;54819;48.030;14.710;2023-07-24T00:43:59;21.08;66.23
68026;SHT31;54819;48.030;14.710;2023-07-24T00:46:27;21.08;66.22
68026;SHT31;54819;48.030;14.710;2023-07-24T00:49:00;21.07;66.01
68026;SHT31;54819;48.030;14.710;2023-07-24T00:51:30;21.04;66.31
68026;SHT31;54819;48.030;14.710;2023-07-24T00:53:57;21.03;66.28
68026;SHT31;54819;48.030;14.710;2023-07-24T00:56:28;21.00;66.33
68026;SHT31;54819;48.030;14.710;2023-07-24T00:58:57;20.96;66.58
68026;SHT31;54819;48.030;14.710;2023-07-24T01:01:26;20.94;66.76
68026;SHT31;54819;48.030;14.710;2023-07-24T01:03:53;20.95;67.02
68026;SHT31;54819;48.030;14.710;2023-07-24T01:06:21;20.93;66.57
68026;SHT31;54819;48.030;14.710;2023-07-24T01:08:48;20.91;66.59
68026;SHT31;54819;48.030;14.710;2023-07-24T01:13:48;20.86;66.56
68026;SHT31;54819;48.030;14.710;2023-07-24T01:16:22;20.81;66.36
68026;SHT31;54819;48.030;14.710;2023-07-24T01:18:53;20.77;66.47
68026;SHT31;54819;48.030;14.710;2023-07-24T01:21:27;20.74;66.61
68026;SHT31;54819;48.030;14.710;2023-07-24T01:24:09;20.72;66.43
68026;SHT31;54819;48.030;14.710;2023-07-24T01:26:49;20.71;66.44
68026;SHT31;54819;48.030;14.710;2023-07-24T01:29:17;20.69;66.46
68026;SHT31;54819;48.030;14.710;2023-07-24T01:31:44;20.66;66.58
68026;SHT31;54819;48.030;14.710;2023-07-24T01:34:12;20.63;66.91
68026;SHT31;54819;48.030;14.710;2023-07-24T01:36:39;20.61;66.79
68026;SHT31;54819;48.030;14.710;2023-07-24T01:39:06;20.57;66.88
68026;SHT31;54819;48.030;14.710;2023-07-24T01:41:33;20.52;66.90
68026;SHT31;54819;48.030;14.710;2023-07-24T01:43:59;20.48;66.91
68026;SHT31;54819;48.030;14.710;2023-07-24T01:46:26;20.43;66.99
68026;SHT31;54819;48.030;14.710;2023-07-24T01:48:54;20.38;67.13
68026;SHT31;54819;48.030;14.710;2023-07-24T01:51:20;20.38;67.52
68026;SHT31;54819;48.030;14.710;2023-07-24T01:53:47;20.42;67.51
68026;SHT31;54819;48.030;14.710;2023-07-24T01:56:14;20.46;67.37
68026;SHT31;54819;48.030;14.710;2023-07-24T01:58:41;20.49;67.40
68026;SHT31;54819;48.030;14.710;2023-07-24T02:01:07;20.49;67.32
68026;SHT31;54819;48.030;14.710;2023-07-24T02:03:34;20.45;67.14
68026;SHT31;54819;48.030;14.710;2023-07-24T02:06:01;20.43;67.13
68026;SHT31;54819;48.030;14.710;2023-07-24T02:08:28;20.42;67.23
68026;SHT31;54819;48.030;14.710;2023-07-24T02:10:54;20.43;67.24
68026;SHT31;54819;48.030;14.710;2023-07-24T02:13:21;20.42;67.11
68026;SHT31;54819;48.030;14.710;2023-07-24T02:15:48;20.39;67.16
68026;SHT31;54819;48.030;14.710;2023-07-24T02:18:15;20.38;67.11
68026;SHT31;54819;48.030;14.710;2023-07-24T02:20:47;20.36;67.21
68026;SHT31;54819;48.030;14.710;2023-07-24T02:23:16;20.34;67.36
68026;SHT31;54819;48.030;14.710;2023-07-24T02:25:43;20.34;67.44
68026;SHT31;54819;48.030;14.710;2023-07-24T02:28:10;20.32;67.46
68026;SHT31;54819;48.030;14.710;2023-07-24T02:30:39;20.30;67.33
68026;SHT31;54819;48.030;14.710;2023-07-24T02:33:06;20.30;67.43
68026;SHT31;54819;48.030;14.710;2023-07-24T02:35:39;20.30;67.67
68026;SHT31;54819;48.030;14.710;2023-07-24T02:38:07;20.31;67.53
68026;SHT31;54819;48.030;14.710;2023-07-24T02:40:35;20.32;67.44
68026;SHT31;54819;48.030;14.710;2023-07-24T02:43:01;20.33;67.41
68026;SHT31;54819;48.030;14.710;2023-07-24T02:45:28;20.34;67.49
68026;SHT31;54819;48.030;14.710;2023-07-24T02:47:56;20.35;67.51
68026;SHT31;54819;48.030;14.710;2023-07-24T02:50:23;20.36;67.46
68026;SHT31;54819;48.030;14.710;2023-07-24T02:52:49;20.38;67.42
68026;SHT31;54819;48.030;14.710;2023-07-24T02:55:16;20.39;67.45
68026;SHT31;54819;48.030;14.710;2023-07-24T02:57:43;20.40;67.59
68026;SHT31;54819;48.030;14.710;2023-07-24T03:00:10;20.41;67.44
68026;SHT31;54819;48.030;14.710;2023-07-24T03:02:37;20.41;67.26
68026;SHT31;54819;48.030;14.710;2023-07-24T03:05:05;20.40;67.25
68026;SHT31;54819;48.030;14.710;2023-07-24T03:07:32;20.40;67.41
68026;SHT31;54819;48.030;14.710;2023-07-24T03:10:00;20.38;67.48
68026;SHT31;54819;48.030;14.710;2023-07-24T03:12:26;20.35;67.56
68026;SHT31;54819;48.030;14.710;2023-07-24T03:14:53;20.31;67.64
68026;SHT31;54819;48.030;14.710;2023-07-24T03:17:20;20.25;67.85
68026;SHT31;54819;48.030;14.710;2023-07-24T03:19:49;20.20;67.91
68026;SHT31;54819;48.030;14.710;2023-07-24T03:22:16;20.15;68.24
68026;SHT31;54819;48.030;14.710;2023-07-24T03:24:43;20.06;68.52
68026;SHT31;54819;48.030;14.710;2023-07-24T03:27:10;20.00;68.53
68026;SHT31;54819;48.030;14.710;2023-07-24T03:29:36;19.97;68.57
68026;SHT31;54819;48.030;14.710;2023-07-24T03:32:03;19.88;68.68
68026;SHT31;54819;48.030;14.710;2023-07-24T03:34:30;19.72;68.89
68026;SHT31;54819;48.030;14.710;2023-07-24T03:36:57;19.63;68.99
68026;SHT31;54819;48.030;14.710;2023-07-24T03:39:24;19.54;69.09
68026;SHT31;54819;48.030;14.710;2023-07-24T03:41:50;19.50;69.36
68026;SHT31;54819;48.030;14.710;2023-07-24T03:44:17;19.50;69.27
68026;SHT31;54819;48.030;14.710;2023-07-24T03:46:44;19.51;69.36
68026;SHT31;54819;48.030;14.710;2023-07-24T03:49:11;19.52;69.35
68026;SHT31;54819;48.030;14.710;2023-07-24T03:51:38;19.57;69.36
68026;SHT31;54819;48.030;14.710;2023-07-24T03:54:04;19.61;69.45
68026;SHT31;54819;48.030;14.710;2023-07-24T03:56:31;19.66;69.56
68026;SHT31;54819;48.030;14.710;2023-07-24T03:58:58;19.71;69.53
68026;SHT31;54819;48.030;14.710;2023-07-24T04:01:25;19.75;69.57
68026;SHT31;54819;48.030;14.710;2023-07-24T04:03:52;19.78;69.12
68026;SHT31;54819;48.030;14.710;2023-07-24T04:06:19;19.68;69.18
68026;SHT31;54819;48.030;14.710;2023-07-24T04:08:46;19.66;69.60
68026;SHT31;54819;48.030;14.710;2023-07-24T04:11:12;19.69;69.62
68026;SHT31;54819;48.030;14.710;2023-07-24T04:13:39;19.73;69.76
68026;SHT31;54819;48.030;14.710;2023-07-24T04:16:06;19.78;69.84
68026;SHT31;54819;48.030;14.710;2023-07-24T04:18:32;19.84;69.91
68026;SHT31;54819;48.030;14.710;2023-07-24T04:20:59;19.91;70.00
68026;SHT31;54819;48.030;14.710;2023-07-24T04:23:26;19.96;69.69
68026;SHT31;54819;48.030;14.710;2023-07-24T04:25:52;19.97;69.49
68026;SHT31;54819;48.030;14.710;2023-07-24T04:28:19;19.97;69.38
68026;SHT31;54819;48.030;14.710;2023-07-24T04:30:46;20.02;69.32
68026;SHT31;54819;48.030;14.710;2023-07-24T04:33:12;20.06;69.61
68026;SHT31;54819;48.030;14.710;2023-07-24T04:35:39;20.10;69.70
68026;SHT31;54819;48.030;14.710;2023-07-24T04:38:06;20.16;69.59
68026;SHT31;54819;48.030;14.710;2023-07-24T04:40:32;20.33;69.40
68026;SHT31;54819;48.030;14.710;2023-07-24T04:42:59;20.56;68.97
68026;SHT31;54819;48.030;14.710;2023-07-24T04:45:26;20.84;68.47
68026;SHT31;54819;48.030;14.710;2023-07-24T04:47:52;21.09;68.06
68026;SHT31;54819;48.030;14.710;2023-07-24T04:50:19;21.44;67.61
68026;SHT31;54819;48.030;14.710;2023-07-24T04:52:46;21.89;66.97
68026;SHT31;54819;48.030;14.710;2023-07-24T04:55:13;22.56;66.20
68026;SHT31;54819;48.030;14.710;2023-07-24T04:57:39;23.25;65.39
68026;SHT31;54819;48.030;14.710;2023-07-24T05:00:06;23.69;64.24
68026;SHT31;54819;48.030;14.710;2023-07-24T05:02:34;24.15;63.24
68026;SHT31;54819;48.030;14.710;2023-07-24T05:05:00;24.73;62.16
68026;SHT31;54819;48.030;14.710;2023-07-24T05:07:27;25.05;61.52
68026;SHT31;54819;48.030;14.710;2023-07-24T05:09:54;25.20;60.12
68026;SHT31;54819;48.030;14.710;2023-07-24T05:12:21;25.33;60.09
68026;SHT31;54819;48.030;14.710;2023-07-24T05:14:47;25.42;59.98
68026;SHT31;54819;48.030;14.710;2023-07-24T05:17:14;25.40;59.07
68026;SHT31;54819;48.030;14.710;2023-07-24T05:19:41;25.35;59.34
68026;SHT31;54819;48.030;14.710;2023-07-24T05:22:08;25.36;59.44
68026;SHT31;54819;48.030;14.710;2023-07-24T05:24:37;25.23;59.22
68026;SHT31;54819;48.030;14.710;2023-07-24T05:27:04;25.06;59.35
68026;SHT31;54819;48.030;14.710;2023-07-24T05:29:32;24.62;59.70
68026;SHT31;54819;48.030;14.710;2023-07-24T05:31:59;24.21;60.01
68026;SHT31;54819;48.030;14.710;2023-07-24T05:34:26;23.98;60.39
68026;SHT31;54819;48.030;14.710;2023-07-24T05:36:52;23.74;60.74
68026;SHT31;54819;48.030;14.710;2023-07-24T05:39:19;23.50;61.39
68026;SHT31;54819;48.030;14.710;2023-07-24T05:41:47;23.47;61.61
68026;SHT31;54819;48.030;14.710;2023-07-24T05:44:15;23.44;61.78
68026;SHT31;54819;48.030;14.710;2023-07-24T05:46:41;23.53;61.68
68026;SHT31;54819;48.030;14.710;2023-07-24T05:49:08;23.50;61.75
68026;SHT31;54819;48.030;14.710;2023-07-24T05:51:35;23.57;61.95
68026;SHT31;54819;48.030;14.710;2023-07-24T05:54:01;23.64;61.95
68026;SHT31;54819;48.030;14.710;2023-07-24T05:56:28;23.80;61.26
68026;SHT31;54819;48.030;14.710;2023-07-24T05:58:55;23.96;60.97
68026;SHT31;54819;48.030;14.710;2023-07-24T06:01:22;24.07;60.96
68026;SHT31;54819;48.030;14.710;2023-07-24T06:03:49;24.15;60.99
68026;SHT31;54819;48.030;14.710;2023-07-24T06:06:16;24.16;61.21
68026;SHT31;54819;48.030;14.710;2023-07-24T06:08:42;24.21;61.10
68026;SHT31;54819;48.030;14.710;2023-07-24T06:11:09;24.33;61.13
68026;SHT31;54819;48.030;14.710;2023-07-24T06:13:37;24.54;60.70
68026;SHT31;54819;48.030;14.710;2023-07-24T06:16:03;24.69;59.92
68026;SHT31;54819;48.030;14.710;2023-07-24T06:18:30;24.74;59.60
68026;SHT31;54819;48.030;14.710;2023-07-24T06:20:57;24.72;59.71
68026;SHT31;54819;48.030;14.710;2023-07-24T06:23:24;24.66;59.75
68026;SHT31;54819;48.030;14.710;2023-07-24T06:25:50;24.61;59.88
68026;SHT31;54819;48.030;14.710;2023-07-24T06:28:18;24.64;59.72
68026;SHT31;54819;48.030;14.710;2023-07-24T06:30:45;24.66;59.61
68026;SHT31;54819;48.030;14.710;2023-07-24T06:33:12;24.71;59.84
68026;SHT31;54819;48.030;14.710;2023-07-24T06:35:39;24.83;60.01
68026;SHT31;54819;48.030;14.710;2023-07-24T06:38:06;24.92;59.69
68026;SHT31;54819;48.030;14.710;2023-07-24T06:40:34;24.94;59.42
68026;SHT31;54819;48.030;14.710;2023-07-24T06:43:01;24.97;59.22
68026;SHT31;54819;48.030;14.710;2023-07-24T06:45:28;25.00;59.18
68026;SHT31;54819;48.030;14.710;2023-07-24T06:47:54;25.05;59.00
68026;SHT31;54819;48.030;14.710;2023-07-24T06:50:21;25.09;58.46
68026;SHT31;54819;48.030;14.710;2023-07-24T06:52:48;25.12;58.27
68026;SHT31;54819;48.030;14.710;2023-07-24T06:55:17;25.23;58.04
68026;SHT31;54819;48.030;14.710;2023-07-24T06:57:43;25.35;57.83
68026;SHT31;54819;48.030;14.710;2023-07-24T07:00:10;25.36;56.90
68026;SHT31;54819;48.030;14.710;2023-07-24T07:02:38;25.47;56.86
68026;SHT31;54819;48.030;14.710;2023-07-24T07:05:05;25.76;56.56
68026;SHT31;54819;48.030;14.710;2023-07-24T07:07:33;26.03;55.90
68026;SHT31;54819;48.030;14.710;2023-07-24T07:09:59;26.23;55.60
68026;SHT31;54819;48.030;14.710;2023-07-24T07:12:26;26.24;55.36
68026;SHT31;54819;48.030;14.710;2023-07-24T07:14:53;26.31;55.39
68026;SHT31;54819;48.030;14.710;2023-07-24T07:17:19;26.39;55.18
68026;SHT31;54819;48.030;14.710;2023-07-24T07:19:46;26.38;54.66
68026;SHT31;54819;48.030;14.710;2023-07-24T07:22:13;26.31;54.32
68026;SHT31;54819;48.030;14.710;2023-07-24T07:24:39;26.35;54.58
68026;SHT31;54819;48.030;14.710;2023-07-24T07:27:06;26.36;54.39
68026;SHT31;54819;48.030;14.710;2023-07-24T07:29:33;26.35;54.12
68026;SHT31;54819;48.030;14.710;2023-07-24T07:32:00;26.32;54.03
68026;SHT31;54819;48.030;14.710;2023-07-24T07:34:27;26.29;54.07
68026;SHT31;54819;48.030;14.710;2023-07-24T07:36:53;26.27;53.80
68026;SHT31;54819;48.030;14.710;2023-07-24T07:39:20;26.30;53.96
68026;SHT31;54819;48.030;14.710;2023-07-24T07:41:46;26.42;54.14
68026;SHT31;54819;48.030;14.710;2023-07-24T07:44:13;26.50;53.75
68026;SHT31;54819;48.030;14.710;2023-07-24T07:46:40;26.55;53.65
68026;SHT31;54819;48.030;14.710;2023-07-24T07:49:07;26.64;53.13
68026;SHT31;54819;48.030;14.710;2023-07-24T07:51:33;26.77;53.21
68026;SHT31;54819;48.030;14.710;2023-07-24T07:54:00;26.87;53.25
68026;SHT31;54819;48.030;14.710;2023-07-24T07:56:26;27.08;53.10
68026;SHT31;54819;48.030;14.710;2023-07-24T07:58:54;27.28;52.92
68026;SHT31;54819;48.030;14.710;2023-07-24T08:01:21;27.41;52.70
68026;SHT31;54819;48.030;14.710;2023-07-24T08:03:48;27.45;51.94
68026;SHT31;54819;48.030;14.710;2023-07-24T08:06:15;27.55;52.03
68026;SHT31;54819;48.030;14.710;2023-07-24T08:08:41;27.68;51.85
68026;SHT31;54819;48.030;14.710;2023-07-24T08:11:08;27.81;51.90
68026;SHT31;54819;48.030;14.710;2023-07-24T08:13:35;27.97;51.91
68026;SHT31;54819;48.030;14.710;2023-07-24T08:16:01;28.12;51.66
68026;SHT31;54819;48.030;14.710;2023-07-24T08:18:30;28.30;50.70
68026;SHT31;54819;48.030;14.710;2023-07-24T08:20:57;28.47;50.52
68026;SHT31;54819;48.030;14.710;2023-07-24T08:23:24;28.59;49.73
68026;SHT31;54819;48.030;14.710;2023-07-24T08:25:51;28.68;48.74
68026;SHT31;54819;48.030;14.710;2023-07-24T08:28:20;28.74;49.18
68026;SHT31;54819;48.030;14.710;2023-07-24T08:30:55;28.89;48.89
68026;SHT31;54819;48.030;14.710;2023-07-24T08:33:24;29.01;47.78
68026;SHT31;54819;48.030;14.710;2023-07-24T08:35:58;29.15;47.89
68026;SHT31;54819;48.030;14.710;2023-07-24T08:38:33;29.31;47.92
68026;SHT31;54819;48.030;14.710;2023-07-24T08:43:34;29.50;47.09
68026;SHT31;54819;48.030;14.710;2023-07-24T08:46:02;29.60;46.30
68026;SHT31;54819;48.030;14.710;2023-07-24T08:48:31;29.65;44.85
68026;SHT31;54819;48.030;14.710;2023-07-24T08:51:03;29.74;45.99
68026;SHT31;54819;48.030;14.710;2023-07-24T08:53:32;29.81;44.73
68026;SHT31;54819;48.030;14.710;2023-07-24T08:56:09;29.90;45.15
68026;SHT31;54819;48.030;14.710;2023-07-24T08:58:37;30.06;45.46
68026;SHT31;54819;48.030;14.710;2023-07-24T09:01:06;30.16;45.15
68026;SHT31;54819;48.030;14.710;2023-07-24T09:03:34;30.14;45.70
68026;SHT31;54819;48.030;14.710;2023-07-24T09:06:01;30.10;45.29
68026;SHT31;54819;48.030;14.710;2023-07-24T09:08:35;30.15;45.05
68026;SHT31;54819;48.030;14.710;2023-07-24T09:11:04;30.12;45.32
68026;SHT31;54819;48.030;14.710;2023-07-24T09:13:34;30.12;45.33
68026;SHT31;54819;48.030;14.710;2023-07-24T09:16:02;30.20;45.60
68026;SHT31;54819;48.030;14.710;2023-07-24T09:18:41;30.25;44.65
68026;SHT31;54819;48.030;14.710;2023-07-24T09:21:10;30.32;45.04
68026;SHT31;54819;48.030;14.710;2023-07-24T09:23:40;30.34;44.83
68026;SHT31;54819;48.030;14.710;2023-07-24T09:26:07;30.29;44.28
68026;SHT31;54819;48.030;14.710;2023-07-24T09:28:34;30.23;44.74
68026;SHT31;54819;48.030;14.710;2023-07-24T09:31:02;30.15;44.19
68026;SHT31;54819;48.030;14.710;2023-07-24T09:36:07;30.28;42.94
68026;SHT31;54819;48.030;14.710;2023-07-24T09:38:35;30.42;42.32
68026;SHT31;54819;48.030;14.710;2023-07-24T09:41:04;30.61;41.86
68026;SHT31;54819;48.030;14.710;2023-07-24T09:43:32;30.80;41.80
68026;SHT31;54819;48.030;14.710;2023-07-24T09:46:06;30.94;41.98
68026;SHT31;54819;48.030;14.710;2023-07-24T09:48:34;31.10;40.68
68026;SHT31;54819;48.030;14.710;2023-07-24T09:51:08;31.24;38.91
68026;SHT31;54819;48.030;14.710;2023-07-24T09:54:26;31.42;38.30
68026;SHT31;54819;48.030;14.710;2023-07-24T09:56:35;31.56;39.03
68026;SHT31;54819;48.030;14.710;2023-07-24T09:59:15;31.68;40.15
68026;SHT31;54819;48.030;14.710;2023-07-24T10:01:43;31.72;40.12
68026;SHT31;54819;48.030;14.710;2023-07-24T10:04:10;31.65;40.64
68026;SHT31;54819;48.030;14.710;2023-07-24T10:06:38;31.68;40.36
68026;SHT31;54819;48.030;14.710;2023-07-24T10:09:05;31.79;40.93
68026;SHT31;54819;48.030;14.710;2023-07-24T10:11:33;31.83;40.48
68026;SHT31;54819;48.030;14.710;2023-07-24T10:14:00;31.80;40.25
68026;SHT31;54819;48.030;14.710;2023-07-24T10:16:27;31.84;40.70
68026;SHT31;54819;48.030;14.710;2023-07-24T10:18:55;31.86;40.72
68026;SHT31;54819;48.030;14.710;2023-07-24T10:21:28;31.80;40.11
68026;SHT31;54819;48.030;14.710;2023-07-24T10:23:59;31.76;39.69
68026;SHT31;54819;48.030;14.710;2023-07-24T10:26:26;31.88;40.07
68026;SHT31;54819;48.030;14.710;2023-07-24T10:28:53;31.96;40.20
68026;SHT31;54819;48.030;14.710;2023-07-24T10:31:22;32.08;40.15
68026;SHT31;54819;48.030;14.710;2023-07-24T10:33:53;32.10;39.47
68026;SHT31;54819;48.030;14.710;2023-07-24T10:36:21;31.99;39.17
68026;SHT31;54819;48.030;14.710;2023-07-24T10:38:53;31.84;39.08
68026;SHT31;54819;48.030;14.710;2023-07-24T10:41:21;31.78;39.06
68026;SHT31;54819;48.030;14.710;2023-07-24T10:43:49;31.80;39.30
68026;SHT31;54819;48.030;14.710;2023-07-24T10:46:17;31.86;39.33
68026;SHT31;54819;48.030;14.710;2023-07-24T10:48:49;31.91;39.14
68026;SHT31;54819;48.030;14.710;2023-07-24T10:51:17;31.88;38.88
68026;SHT31;54819;48.030;14.710;2023-07-24T10:53:48;31.89;39.18
68026;SHT31;54819;48.030;14.710;2023-07-24T10:56:15;31.88;38.89
68026;SHT31;54819;48.030;14.710;2023-07-24T10:58:43;31.93;38.21
68026;SHT31;54819;48.030;14.710;2023-07-24T11:01:10;32.07;38.44
68026;SHT31;54819;48.030;14.710;2023-07-24T11:03:38;32.17;38.38
68026;SHT31;54819;48.030;14.710;2023-07-24T11:06:17;32.22;38.22
68026;SHT31;54819;48.030;14.710;2023-07-24T11:08:51;32.28;38.47
68026;SHT31;54819;48.030;14.710;2023-07-24T11:11:19;32.37;38.40
68026;SHT31;54819;48.030;14.710;2023-07-24T11:13:46;32.42;38.13
68026;SHT31;54819;48.030;14.710;2023-07-24T11:16:12;32.35;37.86
68026;SHT31;54819;48.030;14.710;2023-07-24T11:18:46;32.47;38.22
68026;SHT31;54819;48.030;14.710;2023-07-24T11:21:20;32.64;38.37
68026;SHT31;54819;48.030;14.710;2023-07-24T11:23:50;32.61;38.95
68026;SHT31;54819;48.030;14.710;2023-07-24T11:26:21;32.57;40.62
68026;SHT31;54819;48.030;14.710;2023-07-24T11:28:50;32.42;41.81
68026;SHT31;54819;48.030;14.710;2023-07-24T11:31:18;32.31;42.00
68026;SHT31;54819;48.030;14.710;2023-07-24T11:33:46;32.26;41.48
68026;SHT31;54819;48.030;14.710;2023-07-24T11:36:15;32.08;41.68
68026;SHT31;54819;48.030;14.710;2023-07-24T11:38:44;32.04;41.70
68026;SHT31;54819;48.030;14.710;2023-07-24T11:41:11;32.03;42.17
68026;SHT31;54819;48.030;14.710;2023-07-24T11:43:45;32.01;41.69
68026;SHT31;54819;48.030;14.710;2023-07-24T11:46:23;31.89;41.84
68026;SHT31;54819;48.030;14.710;2023-07-24T11:48:51;31.68;41.79
68026;SHT31;54819;48.030;14.710;2023-07-24T11:51:20;31.64;42.50
68026;SHT31;54819;48.030;14.710;2023-07-24T11:53:47;31.59;42.61
68026;SHT31;54819;48.030;14.710;2023-07-24T11:56:14;31.50;42.62
68026;SHT31;54819;48.030;14.710;2023-07-24T11:58:42;31.42;42.47
68026;SHT31;54819;48.030;14.710;2023-07-24T12:01:09;31.34;42.17
68026;SHT31;54819;48.030;14.710;2023-07-24T12:03:39;31.33;42.68
68026;SHT31;54819;48.030;14.710;2023-07-24T12:06:13;31.36;42.18
68026;SHT31;54819;48.030;14.710;2023-07-24T12:08:42;31.33;41.53
68026;SHT31;54819;48.030;14.710;2023-07-24T12:11:18;31.30;41.01
68026;SHT31;54819;48.030;14.710;2023-07-24T12:13:45;31.29;41.07
68026;SHT31;54819;48.030;14.710;2023-07-24T12:16:12;31.38;41.23
68026;SHT31;54819;48.030;14.710;2023-07-24T12:18:39;31.45;41.09
68026;SHT31;54819;48.030;14.710;2023-07-24T12:21:05;31.55;40.46
68026;SHT31;54819;48.030;14.710;2023-07-24T12:23:32;31.63;40.33
68026;SHT31;54819;48.030;14.710;2023-07-24T12:25:59;31.69;40.16
68026;SHT31;54819;48.030;14.710;2023-07-24T12:28:26;31.64;39.65
68026;SHT31;54819;48.030;14.710;2023-07-24T12:30:52;31.62;39.63
68026;SHT31;54819;48.030;14.710;2023-07-24T12:33:19;31.53;39.40
68026;SHT31;54819;48.030;14.710;2023-07-24T12:35:50;31.48;39.75
68026;SHT31;54819;48.030;14.710;2023-07-24T12:38:18;31.54;40.02
68026;SHT31;54819;48.030;14.710;2023-07-24T12:40:45;31.56;39.74
68026;SHT31;54819;48.030;14.710;2023-07-24T12:43:11;31.50;39.52
68026;SHT31;54819;48.030;14.710;2023-07-24T12:45:38;31.50;39.90
68026;SHT31;54819;48.030;14.710;2023-07-24T12:48:05;31.55;39.88
68026;SHT31;54819;48.030;14.710;2023-07-24T12:50:33;31.66;40.10
68026;SHT31;54819;48.030;14.710;2023-07-24T12:53:00;31.72;39.72
68026;SHT31;54819;48.030;14.710;2023-07-24T12:55:30;31.73;39.46
68026;SHT31;54819;48.030;14.710;2023-07-24T12:57:57;31.70;39.44
68026;SHT31;54819;48.030;14.710;2023-07-24T13:00:24;31.74;39.86
68026;SHT31;54819;48.030;14.710;2023-07-24T13:02:51;31.89;40.24
68026;SHT31;54819;48.030;14.710;2023-07-24T13:05:18;31.93;39.87
68026;SHT31;54819;48.030;14.710;2023-07-24T13:07:44;31.83;39.87
68026;SHT31;54819;48.030;14.710;2023-07-24T13:10:12;31.75;40.26
68026;SHT31;54819;48.030;14.710;2023-07-24T13:12:39;31.63;40.19
68026;SHT31;54819;48.030;14.710;2023-07-24T13:15:06;31.65;41.00
68026;SHT31;54819;48.030;14.710;2023-07-24T13:17:33;31.73;41.02
68026;SHT31;54819;48.030;14.710;2023-07-24T13:20:00;31.74;40.77
68026;SHT31;54819;48.030;14.710;2023-07-24T13:22:26;31.72;40.68
68026;SHT31;54819;48.030;14.710;2023-07-24T13:24:54;31.77;40.66
68026;SHT31;54819;48.030;14.710;2023-07-24T13:27:20;31.85;40.62
68026;SHT31;54819;48.030;14.710;2023-07-24T13:29:47;31.91;40.45
68026;SHT31;54819;48.030;14.710;2023-07-24T13:32:14;31.96;40.15
68026;SHT31;54819;48.030;14.710;2023-07-24T13:34:42;31.97;40.31
68026;SHT31;54819;48.030;14.710;2023-07-24T13:37:09;31.82;39.89
68026;SHT31;54819;48.030;14.710;2023-07-24T13:39:36;31.65;40.53
68026;SHT31;54819;48.030;14.710;2023-07-24T13:42:02;31.68;40.93
68026;SHT31;54819;48.030;14.710;2023-07-24T13:44:29;31.73;40.32
68026;SHT31;54819;48.030;14.710;2023-07-24T13:46:56;31.79;40.61
68026;SHT31;54819;48.030;14.710;2023-07-24T13:49:22;31.85;40.65
68026;SHT31;54819;48.030;14.710;2023-07-24T13:51:49;31.86;40.94
68026;SHT31;54819;48.030;14.710;2023-07-24T13:54:16;31.80;40.80
68026;SHT31;54819;48.030;14.710;2023-07-24T13:56:43;31.77;41.02
68026;SHT31;54819;48.030;14.710;2023-07-24T13:59:10;31.87;41.10
68026;SHT31;54819;48.030;14.710;2023-07-24T14:01:38;32.07;41.21
68026;SHT31;54819;48.030;14.710;2023-07-24T14:04:04;32.16;41.06
68026;SHT31;54819;48.030;14.710;2023-07-24T14:06:31;32.20;41.39
68026;SHT31;54819;48.030;14.710;2023-07-24T14:08:58;32.15;40.87
68026;SHT31;54819;48.030;14.710;2023-07-24T14:11:24;32.15;40.58
68026;SHT31;54819;48.030;14.710;2023-07-24T14:13:53;32.14;40.49
68026;SHT31;54819;48.030;14.710;2023-07-24T14:16:20;32.02;40.45
68026;SHT31;54819;48.030;14.710;2023-07-24T14:18:46;31.80;40.55
68026;SHT31;54819;48.030;14.710;2023-07-24T14:21:13;31.72;40.43
68026;SHT31;54819;48.030;14.710;2023-07-24T14:23:39;31.71;40.53
68026;SHT31;54819;48.030;14.710;2023-07-24T14:26:06;31.64;40.47
68026;SHT31;54819;48.030;14.710;2023-07-24T14:28:33;31.55;40.52
68026;SHT31;54819;48.030;14.710;2023-07-24T14:31:00;31.51;40.58
68026;SHT31;54819;48.030;14.710;2023-07-24T14:33:26;31.45;40.80
68026;SHT31;54819;48.030;14.710;2023-07-24T14:35:53;31.41;41.09
68026;SHT31;54819;48.030;14.710;2023-07-24T14:38:21;31.43;41.19
68026;SHT31;54819;48.030;14.710;2023-07-24T14:40:48;31.37;41.24
68026;SHT31;54819;48.030;14.710;2023-07-24T14:43:14;31.31;41.17
68026;SHT31;54819;48.030;14.710;2023-07-24T14:45:41;31.17;41.37
68026;SHT31;54819;48.030;14.710;2023-07-24T14:48:08;31.12;41.53
68026;SHT31;54819;48.030;14.710;2023-07-24T14:50:40;31.17;41.63
68026;SHT31;54819;48.030;14.710;2023-07-24T14:53:07;31.18;41.35
68026;SHT31;54819;48.030;14.710;2023-07-24T14:55:34;31.22;41.57
68026;SHT31;54819;48.030;14.710;2023-07-24T14:58:00;31.20;41.58
68026;SHT31;54819;48.030;14.710;2023-07-24T15:00:27;31.17;41.63
68026;SHT31;54819;48.030;14.710;2023-07-24T15:02:55;31.22;41.81
68026;SHT31;54819;48.030;14.710;2023-07-24T15:05:22;31.23;41.82
68026;SHT31;54819;48.030;14.710;2023-07-24T15:07:49;31.20;41.62
68026;SHT31;54819;48.030;14.710;2023-07-24T15:10:16;31.14;41.80
68026;SHT31;54819;48.030;14.710;2023-07-24T15:12:42;31.11;42.14
68026;SHT31;54819;48.030;14.710;2023-07-24T15:15:09;30.98;42.13
68026;SHT31;54819;48.030;14.710;2023-07-24T15:17:36;30.84;42.11
68026;SHT31;54819;48.030;14.710;2023-07-24T15:20:03;30.59;42.04
68026;SHT31;54819;48.030;14.710;2023-07-24T15:22:30;30.31;41.97
68026;SHT31;54819;48.030;14.710;2023-07-24T15:24:57;30.09;42.43
68026;SHT31;54819;48.030;14.710;2023-07-24T15:27:24;29.89;42.54